BHC weather

Bhurban Heliport
Bhurban, North-West Frontier, Pakistan

Public forecast

Using degrees Celsius for public forecast. Weather courtesy of forecast.io.

Closest aviation weather report (METAR) to Bhurban Heliport

Report is more than 6 hours old.

Closest report is Benazir Bhutto International Airport, 27.2 nm (50.3 km) SW. Retrieved 2020/06/16 08:59 UTC (2 months ago):

OPRN 190855 METAR OPST 160900Z 23004KT 4000 HZ NSC 40/18 Q0997 NOSIG RH29

Closest aviation forecast (TAF) to Bhurban Heliport

Forecast is more than 12 hours old.

Closest forecast is Benazir Bhutto International Airport, 27.2 nm (50.3 km) SW. Retrieved 2019/05/15 00:06 UTC (1 year ago):

TAF OPRN 152130Z 1600/1706 07010KT 7000 FEW040 SCT100 BECMG 1603/1612 23010G20KT SCT040 BECMG 1614/1616 03006KT CAVOK